createdAt,value
2019-06-07T00:00:58.938Z,1.30
2019-06-07T00:03:32.026Z,1.60
2019-06-07T00:06:06.912Z,1.52
2019-06-07T00:08:39.643Z,1.32
2019-06-07T00:11:15.614Z,1.42
2019-06-07T00:13:47.493Z,1.32
2019-06-07T00:16:23.215Z,1.45
2019-06-07T00:18:55.180Z,1.92
2019-06-07T00:22:13.032Z,1.42
2019-06-07T00:24:02.797Z,1.52
2019-06-07T00:26:56.468Z,1.50
2019-06-07T00:29:13.915Z,1.47
2019-06-07T00:31:45.241Z,1.55
2019-06-07T00:34:20.066Z,1.57
2019-06-07T00:36:53.060Z,1.45
2019-06-07T00:39:26.410Z,1.20
2019-06-07T00:41:59.549Z,1.50
2019-06-07T00:44:32.750Z,1.55
2019-06-07T00:47:05.842Z,1.85
2019-06-07T00:49:41.506Z,1.67
2019-06-07T00:52:58.565Z,1.90
2019-06-07T00:54:47.979Z,1.85
2019-06-07T00:57:22.161Z,2.08
2019-06-07T00:59:55.693Z,1.98
2019-06-07T01:02:31.351Z,1.50
2019-06-07T01:05:03.718Z,2.25
2019-06-07T01:07:36.809Z,1.92
2019-06-07T01:10:13.842Z,1.95
2019-06-07T01:12:47.550Z,1.72
2019-06-07T01:15:28.537Z,2.50
2019-06-07T01:18:33.551Z,2.27
2019-06-07T01:20:33.521Z,1.75
2019-06-07T01:23:51.920Z,2.08
2019-06-07T01:25:41.395Z,1.75
2019-06-07T01:28:16.607Z,2.00
2019-06-07T01:30:49.369Z,2.08
2019-06-07T01:33:25.693Z,2.35
2019-06-07T01:35:57.292Z,2.47
2019-06-07T01:38:30.595Z,2.08
2019-06-07T01:41:03.679Z,2.10
2019-06-07T01:43:36.771Z,1.92
2019-06-07T01:46:09.759Z,2.15
2019-06-07T01:48:49.318Z,1.65
2019-06-07T01:51:18.938Z,2.62
2019-06-07T01:54:41.498Z,2.35
2019-06-07T01:56:29.603Z,2.50
2019-06-07T01:59:01.965Z,2.40
2019-06-07T02:01:35.606Z,2.67
2019-06-07T02:04:08.557Z,2.45
2019-06-07T02:06:41.750Z,2.30
2019-06-07T02:09:14.845Z,2.08
2019-06-07T02:11:47.934Z,2.05
2019-06-07T02:14:25.346Z,3.22
2019-06-07T02:16:55.785Z,2.47
2019-06-07T02:19:31.701Z,2.20
2019-06-07T02:24:37.406Z,2.47
2019-06-07T02:27:10.679Z,2.20
2019-06-07T02:29:43.872Z,2.20
2019-06-07T02:32:17.173Z,2.62
2019-06-07T02:34:50.362Z,2.30
2019-06-07T02:37:26.353Z,2.05
2019-06-07T02:39:58.404Z,2.85
2019-06-07T02:42:38.949Z,2.80
2019-06-07T02:45:07.380Z,2.10
2019-06-07T02:47:41.138Z,2.20
2019-06-07T02:50:14.230Z,2.52
2019-06-07T02:52:49.094Z,2.20
2019-06-07T02:55:24.868Z,1.98
2019-06-07T02:57:57.188Z,2.45
2019-06-07T03:01:09.037Z,2.30
2019-06-07T03:03:24.962Z,1.95
2019-06-07T03:05:58.160Z,2.25
2019-06-07T03:08:33.647Z,2.00
2019-06-07T03:11:06.078Z,2.08
2019-06-07T03:13:41.019Z,2.60
2019-06-07T03:16:16.050Z,2.70
2019-06-07T03:18:53.845Z,2.12
2019-06-07T03:21:29.534Z,2.42
2019-06-07T03:24:03.411Z,2.50
2019-06-07T03:27:31.404Z,2.50
2019-06-07T03:29:11.432Z,3.00
2019-06-07T03:31:47.755Z,3.00
2019-06-07T03:34:19.148Z,2.98
2019-06-07T03:36:52.136Z,3.22
2019-06-07T03:39:28.015Z,2.52
2019-06-07T03:42:06.331Z,2.80
2019-06-07T03:44:36.383Z,2.80
2019-06-07T03:47:09.623Z,2.87
2019-06-07T03:49:42.943Z,2.90
2019-06-07T03:52:16.005Z,2.92
2019-06-07T03:54:50.226Z,2.20
2019-06-07T03:57:23.417Z,3.08
2019-06-07T03:59:56.722Z,2.60
2019-06-07T04:02:30.391Z,2.25
2019-06-07T04:05:04.945Z,2.67
2019-06-07T04:07:43.740Z,2.27
2019-06-07T04:10:13.274Z,2.62
2019-06-07T04:12:46.362Z,2.47
2019-06-07T04:15:19.563Z,2.83
2019-06-07T04:18:01.804Z,1.20
2019-06-07T04:20:29.376Z,1.92
2019-06-07T04:23:02.209Z,1.25
2019-06-07T04:25:39.349Z,1.60
2019-06-07T04:28:10.132Z,1.50
2019-06-07T04:30:44.502Z,1.30
2019-06-07T04:33:17.336Z,1.50
2019-06-07T04:35:50.539Z,1.02
2019-06-07T04:38:23.517Z,1.80
2019-06-07T04:40:57.020Z,1.37
2019-06-07T04:43:31.329Z,1.30
2019-06-07T04:46:05.046Z,1.47
2019-06-07T04:48:41.811Z,1.52
2019-06-07T04:51:14.479Z,1.55
2019-06-07T04:53:47.981Z,1.45
2019-06-07T04:56:20.991Z,1.20
2019-06-07T04:58:54.837Z,1.12
2019-06-07T05:01:30.629Z,1.00
2019-06-07T05:04:02.527Z,0.80
2019-06-07T05:06:37.388Z,1.60
2019-06-07T05:09:10.290Z,1.95
2019-06-07T05:11:45.121Z,2.20
2019-06-07T05:14:17.909Z,2.77
2019-06-07T05:16:51.020Z,2.27
2019-06-07T05:19:24.110Z,2.10
2019-06-07T05:22:04.117Z,2.55
2019-06-07T05:24:36.529Z,2.62
2019-06-07T05:27:06.574Z,2.05
2019-06-07T05:29:41.625Z,2.33
2019-06-07T05:32:14.476Z,1.70
2019-06-07T05:34:47.687Z,1.70
2019-06-07T05:37:20.659Z,1.60
2019-06-07T05:39:54.778Z,1.30
2019-06-07T05:42:27.636Z,1.40
2019-06-07T05:45:00.572Z,1.75
2019-06-07T05:47:38.453Z,2.33
2019-06-07T05:50:37.966Z,1.72
2019-06-07T05:52:47.315Z,1.62
2019-06-07T05:55:18.629Z,1.40
2019-06-07T05:57:51.457Z,1.72
2019-06-07T06:00:25.298Z,1.60
2019-06-07T06:03:05.415Z,1.20
2019-06-07T06:05:37.620Z,1.25
2019-06-07T06:08:07.491Z,1.20
2019-06-07T06:10:44.802Z,1.32
2019-06-07T06:13:14.993Z,1.05
2019-06-07T06:16:00.437Z,1.50
2019-06-07T06:18:22.712Z,1.80
2019-06-07T06:21:15.461Z,1.37
2019-06-07T06:23:30.240Z,1.50
2019-06-07T06:26:03.196Z,1.72
2019-06-07T06:28:38.271Z,1.07
2019-06-07T06:31:11.226Z,1.80
2019-06-07T06:33:45.267Z,1.70
2019-06-07T06:36:19.087Z,1.30
2019-06-07T06:38:52.238Z,1.55
2019-06-07T06:41:25.140Z,1.75
2019-06-07T06:43:58.092Z,1.85
2019-06-07T06:46:38.501Z,1.70
2019-06-07T06:49:05.532Z,1.22
2019-06-07T06:51:39.267Z,1.55
2019-06-07T06:54:14.238Z,1.40
2019-06-07T06:56:49.694Z,2.05
2019-06-07T06:59:38.176Z,1.70
2019-06-07T07:01:57.509Z,1.17
2019-06-07T07:04:30.456Z,1.00
2019-06-07T07:07:03.275Z,1.00
2019-06-07T07:09:36.613Z,1.32
2019-06-07T07:12:12.565Z,1.25
2019-06-07T07:14:45.975Z,1.20
2019-06-07T07:19:53.048Z,1.00
2019-06-07T07:22:25.535Z,1.20
2019-06-07T07:24:58.604Z,1.00
2019-06-07T07:27:31.419Z,1.20
2019-06-07T07:30:35.401Z,1.02
2019-06-07T07:32:45.070Z,0.88
2019-06-07T07:35:15.883Z,0.57
2019-06-07T07:37:54.009Z,0.53
2019-06-07T07:42:57.775Z,0.45
2019-06-07T07:45:30.898Z,0.65
2019-06-07T07:48:15.695Z,0.60
2019-06-07T07:50:38.541Z,0.78
2019-06-07T07:53:11.438Z,1.52
2019-06-07T07:55:45.062Z,2.45
2019-06-07T07:58:19.164Z,1.42
2019-06-07T08:01:00.370Z,1.47
2019-06-07T08:03:26.847Z,1.40
2019-06-07T08:06:00.346Z,1.40
2019-06-07T08:08:33.457Z,1.55
2019-06-07T08:11:06.435Z,1.40
2019-06-07T08:13:39.511Z,1.52
2019-06-07T08:16:16.511Z,1.42
2019-06-07T08:18:50.928Z,0.90
2019-06-07T08:21:26.312Z,0.90
2019-06-07T08:24:00.607Z,0.70
2019-06-07T08:29:03.724Z,0.60
2019-06-07T08:31:38.874Z,0.60
2019-06-07T08:34:11.821Z,0.70
2019-06-07T08:36:44.836Z,0.60
2019-06-07T08:39:18.002Z,0.60
2019-06-07T08:41:59.823Z,0.60
2019-06-07T08:44:25.936Z,0.30
2019-06-07T08:47:16.656Z,0.50
2019-06-07T08:49:33.669Z,0.72
2019-06-07T08:52:11.971Z,0.68
2019-06-07T08:57:21.190Z,0.68
2019-06-07T08:59:49.220Z,0.40
2019-06-07T09:02:24.073Z,0.50
2019-06-07T09:07:30.526Z,0.80
2019-06-07T09:10:12.786Z,0.70
2019-06-07T09:12:42.991Z,0.37
2019-06-07T09:15:23.556Z,0.40
2019-06-07T09:20:37.017Z,0.50
2019-06-07T09:23:15.465Z,0.65
2019-06-07T09:25:55.936Z,0.90
2019-06-07T09:28:19.343Z,0.40
2019-06-07T09:30:47.654Z,0.40
2019-06-07T09:33:20.741Z,0.88
2019-06-07T09:35:53.590Z,0.88
2019-06-07T09:38:27.081Z,1.62
2019-06-07T09:41:02.428Z,1.67
2019-06-07T09:46:14.908Z,1.22
2019-06-07T09:51:20.862Z,1.40
2019-06-07T09:53:53.970Z,1.62
2019-06-07T09:56:27.417Z,0.70
2019-06-07T09:59:06.049Z,0.50
2019-06-07T10:01:35.019Z,0.50
2019-06-07T10:04:21.955Z,0.85
2019-06-07T10:06:43.983Z,0.50
2019-06-07T10:14:23.957Z,0.40
2019-06-07T10:16:56.909Z,0.62
2019-06-07T10:19:29.930Z,0.70
2019-06-07T10:22:03.387Z,0.53
2019-06-07T10:24:36.422Z,0.60
2019-06-07T10:27:10.032Z,0.95
2019-06-07T10:29:43.003Z,1.17
2019-06-07T10:32:16.107Z,0.65
2019-06-07T10:34:49.405Z,0.85
2019-06-07T10:37:22.493Z,0.95
2019-06-07T10:39:55.553Z,1.25
2019-06-07T10:42:28.574Z,0.95
2019-06-07T10:45:02.970Z,1.10
2019-06-07T10:50:08.571Z,0.68
2019-06-07T10:52:41.566Z,1.17
2019-06-07T10:55:14.615Z,1.60
2019-06-07T10:57:47.740Z,1.17
2019-06-07T11:00:20.782Z,1.35
2019-06-07T11:02:55.235Z,1.10
2019-06-07T11:05:28.748Z,0.80
2019-06-07T11:08:01.785Z,0.98
2019-06-07T11:10:34.829Z,1.15
2019-06-07T11:13:08.811Z,1.10
2019-06-07T11:15:41.929Z,1.20
2019-06-07T11:18:14.917Z,0.98
2019-06-07T11:20:48.084Z,1.00
2019-06-07T11:23:22.435Z,0.90
2019-06-07T11:25:55.829Z,0.68
2019-06-07T11:28:28.939Z,1.05
2019-06-07T11:31:02.026Z,0.85
2019-06-07T11:33:35.249Z,0.70
2019-06-07T11:36:08.559Z,0.88
2019-06-07T11:38:41.712Z,0.90
2019-06-07T11:41:15.875Z,0.68
2019-06-07T11:43:49.826Z,1.00
2019-06-07T11:46:22.815Z,1.07
2019-06-07T11:48:55.957Z,1.82
2019-06-07T11:51:30.398Z,1.02
2019-06-07T11:54:03.630Z,1.00
2019-06-07T11:56:37.676Z,1.20
2019-06-07T11:59:11.185Z,1.05
2019-06-07T12:01:44.538Z,0.90
2019-06-07T12:04:33.718Z,1.17
2019-06-07T12:06:52.050Z,1.35
2019-06-07T12:09:28.054Z,0.93
2019-06-07T12:11:59.863Z,1.65
2019-06-07T12:14:32.859Z,1.00
2019-06-07T12:17:05.954Z,1.07
2019-06-07T12:19:39.036Z,1.10
2019-06-07T12:22:12.128Z,0.80
2019-06-07T12:24:45.119Z,0.75
2019-06-07T12:27:18.721Z,0.78
2019-06-07T12:29:51.809Z,0.93
2019-06-07T12:32:24.899Z,1.00
2019-06-07T12:34:58.100Z,0.70
2019-06-07T12:37:43.284Z,1.20
2019-06-07T12:40:09.018Z,0.88
2019-06-07T12:42:42.385Z,0.70
2019-06-07T12:45:35.266Z,0.55
2019-06-07T12:47:50.309Z,0.60
2019-06-07T12:50:25.295Z,0.93
2019-06-07T12:52:57.974Z,1.05
2019-06-07T12:55:31.011Z,0.85
2019-06-07T12:58:04.079Z,0.90
2019-06-07T13:00:38.013Z,1.07
2019-06-07T13:03:11.178Z,0.75
2019-06-07T13:05:44.196Z,1.10
2019-06-07T13:08:17.636Z,0.88
2019-06-07T13:10:50.788Z,1.02
2019-06-07T13:13:24.572Z,0.70
2019-06-07T13:15:58.025Z,1.00
2019-06-07T13:18:31.085Z,0.75
2019-06-07T13:21:04.177Z,1.20
2019-06-07T13:23:37.384Z,1.10
2019-06-07T13:26:10.459Z,1.70
2019-06-07T13:28:43.452Z,1.25
2019-06-07T13:31:16.654Z,1.17
2019-06-07T13:33:50.553Z,1.50
2019-06-07T13:36:24.420Z,1.10
2019-06-07T13:38:57.557Z,1.12
2019-06-07T13:41:42.025Z,1.95
2019-06-07T13:44:05.374Z,1.20
2019-06-07T13:46:38.472Z,1.40
2019-06-07T13:49:11.560Z,1.70
2019-06-07T13:51:44.657Z,1.80
2019-06-07T13:54:18.553Z,0.98
2019-06-07T13:57:01.959Z,1.15
2019-06-07T13:59:26.479Z,1.47
2019-06-07T14:01:59.468Z,1.80
2019-06-07T14:04:32.590Z,1.40
2019-06-07T14:07:05.444Z,0.88
2019-06-07T14:09:38.563Z,0.80
2019-06-07T14:12:11.868Z,1.05
2019-06-07T14:14:44.848Z,1.00
2019-06-07T14:17:17.754Z,1.37
2019-06-07T14:19:50.618Z,1.32
2019-06-07T14:22:24.735Z,1.25
2019-06-07T14:24:57.734Z,1.32
2019-06-07T14:27:31.904Z,1.25
2019-06-07T14:30:08.219Z,0.80
2019-06-07T14:32:41.314Z,1.10
2019-06-07T14:35:14.393Z,1.40
2019-06-07T14:37:47.583Z,1.20
2019-06-07T14:40:21.081Z,1.70
2019-06-07T14:42:54.274Z,1.40
2019-06-07T14:45:27.743Z,1.32
2019-06-07T14:48:00.808Z,1.20
2019-06-07T14:50:34.515Z,1.05
2019-06-07T14:53:07.663Z,1.10
2019-06-07T14:55:40.858Z,0.80
2019-06-07T14:58:14.154Z,1.02
2019-06-07T15:00:47.142Z,0.62
2019-06-07T15:03:20.336Z,0.70
2019-06-07T15:05:53.529Z,1.05
2019-06-07T15:08:26.606Z,0.60
2019-06-07T15:10:59.813Z,0.82
2019-06-07T15:13:33.569Z,1.20
2019-06-07T15:16:06.927Z,0.82
2019-06-07T15:18:40.023Z,1.22
2019-06-07T15:21:13.101Z,0.88
2019-06-07T15:23:46.301Z,0.82
2019-06-07T15:26:19.283Z,0.88
2019-06-07T15:28:52.476Z,0.72
2019-06-07T15:31:27.877Z,1.00
2019-06-07T15:34:01.905Z,1.15
2019-06-07T15:36:34.937Z,0.83
2019-06-07T15:39:08.330Z,0.78
2019-06-07T15:41:42.231Z,1.00
2019-06-07T15:44:15.432Z,1.00
2019-06-07T15:46:48.517Z,0.72
2019-06-07T15:49:21.710Z,0.88
2019-06-07T15:51:54.936Z,0.88
2019-06-07T15:54:28.098Z,0.90
2019-06-07T15:57:01.289Z,0.88
2019-06-07T15:59:35.840Z,0.95
2019-06-07T16:02:08.903Z,1.00
2019-06-07T16:04:42.248Z,0.85
2019-06-07T16:07:16.212Z,1.47
2019-06-07T16:09:49.416Z,0.70
2019-06-07T16:12:22.602Z,0.70
2019-06-07T16:14:55.693Z,0.95
2019-06-07T16:17:28.783Z,0.95
2019-06-07T16:20:01.981Z,0.75
2019-06-07T16:22:35.771Z,0.80
2019-06-07T16:25:08.880Z,0.98
2019-06-07T16:27:42.803Z,0.80
2019-06-07T16:30:17.413Z,1.25
2019-06-07T16:32:50.505Z,1.00
2019-06-07T16:35:24.517Z,0.95
2019-06-07T16:37:57.705Z,0.90
2019-06-07T16:40:30.801Z,0.80
2019-06-07T16:43:16.997Z,0.80
2019-06-07T16:48:11.609Z,0.70
2019-06-07T16:50:45.190Z,0.82
2019-06-07T16:53:18.410Z,0.70
2019-06-07T16:55:51.702Z,1.00
2019-06-07T16:58:25.609Z,0.90
2019-06-07T17:00:58.907Z,1.17
2019-06-07T17:03:32.001Z,1.02
2019-06-07T17:06:05.194Z,0.90
2019-06-07T17:08:38.184Z,1.00
2019-06-07T17:11:11.383Z,0.98
2019-06-07T17:13:44.564Z,1.27
2019-06-07T17:16:17.663Z,0.82
2019-06-07T17:18:50.850Z,1.35
2019-06-07T17:21:24.146Z,1.27
2019-06-07T17:23:57.241Z,1.07
2019-06-07T17:26:30.640Z,0.90
2019-06-07T17:29:03.831Z,0.78
2019-06-07T17:31:36.720Z,1.40
2019-06-07T17:34:09.909Z,1.07
2019-06-07T17:36:44.916Z,1.22
2019-06-07T17:42:01.070Z,1.35
2019-06-07T17:44:24.835Z,1.98
2019-06-07T17:46:57.824Z,2.60
2019-06-07T17:49:31.024Z,2.12
2019-06-07T17:52:04.417Z,2.25
2019-06-07T17:54:37.815Z,1.87
2019-06-07T17:57:10.801Z,1.80
2019-06-07T17:59:44.367Z,2.02
2019-06-07T18:02:17.292Z,1.70
2019-06-07T18:04:51.356Z,1.40
2019-06-07T18:07:24.294Z,1.40
2019-06-07T18:09:57.490Z,1.57
2019-06-07T18:12:30.846Z,1.40
2019-06-07T18:15:08.807Z,1.53
2019-06-07T18:17:41.677Z,1.72
2019-06-07T18:20:14.664Z,2.50
2019-06-07T18:22:48.875Z,4.25
2019-06-07T18:25:21.975Z,2.27
2019-06-07T18:27:55.167Z,2.00
2019-06-07T18:30:28.358Z,2.60
2019-06-07T18:33:01.243Z,2.10
2019-06-07T18:35:34.439Z,1.70
2019-06-07T18:38:10.592Z,1.67
2019-06-07T18:40:42.872Z,1.50
2019-06-07T18:43:15.757Z,1.40
2019-06-07T18:45:49.319Z,1.42
2019-06-07T18:48:22.556Z,1.40
2019-06-07T18:50:55.747Z,1.50
2019-06-07T18:53:28.944Z,1.57
2019-06-07T18:56:01.965Z,1.40
2019-06-07T18:58:35.125Z,1.27
2019-06-07T19:01:08.115Z,1.45
2019-06-07T19:03:41.205Z,1.50
2019-06-07T19:06:14.431Z,17.92
2019-06-07T19:08:48.426Z,17.23
2019-06-07T19:11:22.016Z,9.55
2019-06-07T19:13:55.216Z,7.58
2019-06-07T19:16:28.502Z,5.87
2019-06-07T19:19:01.799Z,5.20
2019-06-07T19:21:35.096Z,3.15
2019-06-07T19:24:08.494Z,2.40
2019-06-07T19:26:41.796Z,2.33
2019-06-07T19:29:14.881Z,2.10
2019-06-07T19:31:48.090Z,1.77
2019-06-07T19:34:21.063Z,2.15
2019-06-07T19:36:54.153Z,1.90
2019-06-07T19:39:27.247Z,1.90
2019-06-07T19:42:00.335Z,1.82
2019-06-07T19:44:33.529Z,1.75
2019-06-07T19:47:06.622Z,2.17
2019-06-07T19:49:39.815Z,1.90
2019-06-07T19:52:12.906Z,1.52
2019-06-07T19:54:46.018Z,2.08
2019-06-07T19:57:19.297Z,1.90
2019-06-07T19:59:53.381Z,1.47
2019-06-07T20:02:26.419Z,2.10
2019-06-07T20:05:03.176Z,1.60
2019-06-07T20:07:34.111Z,1.72
2019-06-07T20:10:07.827Z,1.92
2019-06-07T20:12:41.130Z,1.60
2019-06-07T20:15:27.807Z,1.70
2019-06-07T20:17:49.035Z,1.55
2019-06-07T20:20:23.990Z,2.00
2019-06-07T20:22:56.929Z,1.62
2019-06-07T20:25:30.066Z,1.95
2019-06-07T20:28:03.432Z,1.80
2019-06-07T20:30:36.745Z,1.95
2019-06-07T20:33:09.847Z,1.87
2019-06-07T20:35:42.932Z,1.90
2019-06-07T20:38:16.126Z,1.77
2019-06-07T20:40:50.338Z,1.85
2019-06-07T20:43:23.431Z,1.93
2019-06-07T20:46:00.198Z,1.92
2019-06-07T20:48:31.351Z,2.02
2019-06-07T20:51:04.688Z,1.80
2019-06-07T20:53:37.845Z,2.00
2019-06-07T20:56:11.032Z,2.22
2019-06-07T20:58:44.022Z,1.85
2019-06-07T21:01:17.218Z,2.20
2019-06-07T21:03:50.411Z,1.77
2019-06-07T21:06:23.505Z,2.20
2019-06-07T21:08:56.696Z,1.92
2019-06-07T21:11:29.895Z,1.75
2019-06-07T21:14:04.095Z,1.82
2019-06-07T21:16:37.198Z,1.67
2019-06-07T21:19:10.486Z,1.55
2019-06-07T21:21:43.585Z,1.60
2019-06-07T21:24:16.679Z,1.20
2019-06-07T21:26:53.121Z,1.42
2019-06-07T21:29:24.291Z,1.32
2019-06-07T21:31:58.406Z,1.30
2019-06-07T21:34:31.399Z,1.35
2019-06-07T21:37:05.641Z,1.32
2019-06-07T21:39:38.606Z,1.10
2019-06-07T21:42:12.349Z,1.40
2019-06-07T21:44:45.396Z,1.50
2019-06-07T21:47:18.596Z,1.45
2019-06-07T21:49:51.989Z,1.60
2019-06-07T21:52:25.103Z,1.42
2019-06-07T21:54:58.274Z,1.50
2019-06-07T21:57:31.466Z,1.42
2019-06-07T22:00:07.311Z,1.32
2019-06-07T22:02:42.053Z,1.20
2019-06-07T22:05:15.082Z,1.17
2019-06-07T22:07:48.335Z,1.15
2019-06-07T22:10:21.427Z,1.37
2019-06-07T22:12:54.519Z,1.30
2019-06-07T22:15:33.949Z,1.00
2019-06-07T22:18:02.342Z,1.45
2019-06-07T22:20:35.635Z,1.20
2019-06-07T22:23:10.618Z,1.25
2019-06-07T22:25:43.558Z,1.67
2019-06-07T22:28:18.515Z,1.40
2019-06-07T22:30:51.485Z,1.57
2019-06-07T22:33:24.571Z,1.35
2019-06-07T22:35:57.681Z,1.30
2019-06-07T22:38:30.750Z,1.47
2019-06-07T22:41:03.841Z,1.30
2019-06-07T22:43:36.833Z,1.30
2019-06-07T22:46:10.843Z,1.00
2019-06-07T22:48:43.738Z,1.05
2019-06-07T22:51:18.314Z,0.95
2019-06-07T22:53:51.349Z,1.40
2019-06-07T22:56:35.185Z,1.32
2019-06-07T22:59:12.307Z,1.10
2019-06-07T23:01:43.207Z,1.25
2019-06-07T23:04:16.688Z,1.05
2019-06-07T23:06:49.912Z,1.37
2019-06-07T23:09:22.997Z,1.40
2019-06-07T23:11:56.184Z,1.15
2019-06-07T23:14:29.276Z,1.90
2019-06-07T23:17:02.477Z,1.12
2019-06-07T23:19:35.564Z,1.10
2019-06-07T23:22:09.909Z,1.52
2019-06-07T23:24:43.078Z,1.67
2019-06-07T23:27:16.419Z,1.57
2019-06-07T23:29:49.676Z,1.40
2019-06-07T23:32:23.077Z,1.20
2019-06-07T23:34:56.159Z,1.50
2019-06-07T23:37:29.264Z,1.10
2019-06-07T23:40:02.446Z,1.42
2019-06-07T23:42:36.669Z,1.72
2019-06-07T23:45:11.874Z,1.25
2019-06-07T23:47:44.787Z,1.10
2019-06-07T23:50:17.979Z,1.20
2019-06-07T23:52:50.967Z,1.15
2019-06-07T23:55:24.058Z,0.95
2019-06-07T23:57:57.150Z,1.02
